ADDS METAR Data INFO
IDs: Format: Raw Decoded Include TAF

Data at: 1524 UTC 18 Jun 2018

PADU 181456Z 28009KT 10SM OVC021 08/05 A2958 RMK AO2 SLP019 VIS NW 5 MH 60000 T00780050 53010
PADU 181403Z 30008KT 10SM FEW009 BKN023 OVC027 08/04 A2956 RMK AO2 MH
PADU 181356Z 29009KT 10SM BKN023 OVC027 08/04 A2956 RMK AO2 RAE1259 SLP014 MH P0000 T00780044
PADU 181256Z AUTO 29011KT 10SM -RA OVC021 08/05 A2955 RMK AO2 RAB03 SLP011 P0000 T00780050
PADU 181156Z AUTO 33014KT 10SM BKN021 OVC026 08/05 A2955 RMK AO2 RAE20 SLP010 P0000 60000 T00780050 10083 20078 51004
PADU 181056Z AUTO 30010KT 10SM -RA OVC021 08/05 A2955 RMK AO2 RAB24 SLP009 P0000 T00780050
PADU 180956Z AUTO 30007KT 10SM OVC021 08/06 A2954 RMK AO2 SLP006 T00830056
PADU 180856Z AUTO 30007KT 10SM OVC019 08/06 A2954 RMK AO2 SLP005 T00780056 401060078 50007
PADU 180756Z AUTO 31008KT 10SM OVC018 08/06 A2954 RMK AO2 SLP006 T00780056
PADU 180749Z AUTO 32009KT 10SM BKN016 OVC020 08/06 A2954 RMK AO2
PADU 180656Z AUTO 33009KT 10SM BKN014 BKN019 OVC024 08/06 A2952 RMK AO2 SLP001 T00780061
PADU 180556Z AUTO 34010KT 9SM FEW004 OVC010 08/07 A2952 RMK AO2 CIG 007V012 SLP998 T00780067 10106 20078 53006
PADU 180527Z AUTO 34009KT 10SM FEW006 BKN014 OVC022 08/07 A2951 RMK AO2
PADU 180456Z 35010KT 10SM FEW007 BKN015 OVC025 08/07 A2950 RMK AO2 SLP994 LAST BP T00830067
PADU 180356Z 34010KT 10SM FEW007 BKN015 OVC025 09/07 A2950 RMK AO2 SLP992 BP T00940067
PADU 180304Z 34009KT 10SM FEW007 BKN015 OVC025 09/07 A2950 RMK AO2 BP
PADU 180256Z 34008KT 10SM SCT007 BKN010 OVC020 09/07 A2950 RMK AO2 SLP992 BP T00940067 51000
PADU 180156Z 33012KT 10SM SCT007 BKN010 OVC020 10/07 A2949 RMK AO2 SLP991 BP T01000067
PADU 180056Z 03007KT 10SM SCT007 BKN010 OVC020 11/07 A2950 RMK AO2 SLP992 BP T01060067
PADU 172356Z 35008KT 8SM SCT007 BKN010 OVC020 11/07 A2949 RMK AO2 SLP991 BP T01060072 10106 20083 57001
PADU 172256Z 09005KT 6SM BR SCT001 BKN010 OVC020 09/07 A2949 RMK AO2 SLP991 BP T00940072
PADU 172156Z 33004KT 6SM BR SCT001 BKN010 OVC020 10/07 A2950 RMK AO2 SLP993 BP T01000072
PADU 172056Z 00000KT 10SM FEW006 BKN015 OVC020 10/07 A2950 RMK AO2 SLP992 BP T01000067 51008
PADU 171956Z 07003KT 10SM FEW006 BKN015 OVC020 09/07 A2949 RMK AO2 SLP991 BP T00940067
PADU 171856Z VRB05KT 10SM FEW006 BKN015 OVC020 09/06 A2949 RMK AO2 SLP989 BP T00890061
PADU 171758Z 31005KT 10SM FEW006 BKN015 OVC020 08/06 A2947 RMK AO2 BP
PADU 171756Z 30004KT 10SM FEW006 BKN015 OVC020 08/06 A2947 RMK AO2 SLP984 VCSH SW-W CS T00830056 10083 20078 51008
PADU 171751Z 30005KT 10SM FEW006 BKN015 OVC020 08/06 A2947 RMK AO2 VCSH SW-W CS
PADU 171747Z 30004KT 10SM FEW008 BKN015 OVC020 08/06 A2947 RMK AO2 VCSH SW-W CS
PADU 171723Z 34005KT 10SM SCT005 BKN014 OVC018 08/06 A2947 RMK AO2 VCSH SW-W CIG LWR NE CS
PADU 171656Z 33006KT 10SM SCT005 BKN015 OVC020 08/06 A2947 RMK AO2 SLP982 CIG LWR NE CS T00830056
PADU 171556Z 35006KT 10SM SCT005 BKN015 OVC020 08/06 A2946 RMK AO2 SLP979 LWR STRATUS NE CS T00780061
PADU 171458Z 33004KT 10SM FEW008 BKN015 OVC020 08/06 A2945 RMK AO2 LWR STRATUS NE CS
PADU 171456Z 33003KT 10SM FEW006 OVC015 08/06 A2945 RMK AO2 SLP976 VCSH SW-W LWR STRATUS NE CS T00780061 53007
PADU 171356Z 34005KT 10SM FEW006 BKN015 OVC020 08/06 A2944 RMK AO2 SLP972 LWR STRATUS NE CS T00780061
PADU 171353Z 33003KT 10SM FEW006 BKN015 OVC020 08/06 A2944 RMK AO2 LWR STRATUS NE CS
PADU 171326Z 30005KT 10SM BKN018 OVC024 08/06 A2943 RMK AO2 CS
PADU 171306Z 32003KT 10SM OVC018 08/06 A2943 RMK AO2 CS
PADU 171305Z 32003KT 10SM OVC018 08/06 A2943 RMK AO2 CS
PADU 171256Z AUTO 00000KT 10SM OVC016 08/06 A2943 RMK AO2 SLP969 T00830056
PADU 171156Z AUTO 00000KT 10SM SCT017 OVC022 08/06 A2942 RMK AO2 SLP965 70008 T00830061 10083 20078 52012
PADU 171056Z AUTO 35004KT 10SM BKN018 OVC023 08/06 A2941 RMK AO2 SLP961 T00830061
PADU 170956Z AUTO 26003KT 10SM OVC017 08/06 A2939 RMK AO2 SLP957 T00830061
PADU 170903Z AUTO 00000KT 10SM SCT013 OVC021 08/06 A2938 RMK AO2
PADU 170856Z AUTO 00000KT 10SM BKN013 OVC021 08/06 A2938 RMK AO2 SLP953 T00830061 401000072 53026
PADU 170831Z AUTO 00000KT 10SM BKN013 08/06 A2937 RMK AO2
PADU 170807Z AUTO 06003KT 10SM SCT013 BKN046 08/06 A2936 RMK AO2
PADU 170756Z AUTO 05004KT 10SM BKN013 OVC048 08/06 A2935 RMK AO2 SLP943 T00780061
PADU 170737Z AUTO 07005KT 10SM SCT013 OVC048 08/06 A2934 RMK AO2
PADU 170715Z AUTO 07006KT 10SM BKN013 OVC048 08/06 A2934 RMK AO2
PADU 170656Z AUTO 07005KT 10SM FEW015 BKN046 08/06 A2933 RMK AO2 SLP936 T00830061
PADU 170556Z AUTO 08006KT 10SM CLR 08/07 A2931 RMK AO2 SLP927 T00780067 10100 20078 51014
PADU 170537Z AUTO 08007KT 10SM FEW045 08/06 A2930 RMK AO2
PADU 170458Z 08006KT 10SM FEW010 SCT015 BKN025 08/07 A2929 RMK AO2 BP
PADU 170456Z 08005KT 10SM SCT008 BKN018 BKN025 08/07 A2929 RMK AO2 SLP923 BP T00830067
PADU 170358Z 08004KT 10SM SCT008 BKN018 BKN025 08/06 A2928 RMK AO2 BP
PADU 170356Z 10005KT 10SM SCT008 BKN018 BKN025 08/06 A2928 RMK AO2 SLP918 BP T00780061
PADU 170351Z 09005KT 10SM SCT008 BKN018 BKN025 08/07 A2928 RMK AO2 BP